createdAt,value
2018-11-22T00:02:24.910Z,3.10
2018-11-22T00:04:56.235Z,3.20
2018-11-22T00:07:29.189Z,3.10
2018-11-22T00:10:00.747Z,3.10
2018-11-22T00:12:33.835Z,3.10
2018-11-22T00:15:06.031Z,3.10
2018-11-22T00:17:37.380Z,3.10
2018-11-22T00:20:08.793Z,3.10
2018-11-22T00:22:40.165Z,3.20
2018-11-22T00:25:13.054Z,3.10
2018-11-22T00:27:44.340Z,3.10
2018-11-22T00:30:18.262Z,3.10
2018-11-22T00:32:49.609Z,3.20
2018-11-22T00:35:21.386Z,3.10
2018-11-22T00:37:53.433Z,3.10
2018-11-22T00:40:26.282Z,3.10
2018-11-22T00:42:57.601Z,3.10
2018-11-22T00:45:30.065Z,3.10
2018-11-22T00:48:01.292Z,3.20
2018-11-22T00:50:32.576Z,3.20
2018-11-22T00:53:03.913Z,3.20
2018-11-22T00:55:35.213Z,3.10
2018-11-22T00:58:07.381Z,3.20
2018-11-22T01:00:39.137Z,3.20
2018-11-22T01:03:10.411Z,3.20
2018-11-22T01:05:41.690Z,3.20
2018-11-22T01:08:13.012Z,3.30
2018-11-22T01:10:44.228Z,3.30
2018-11-22T01:13:15.575Z,3.30
2018-11-22T01:15:47.769Z,3.30
2018-11-22T01:18:19.116Z,3.30
2018-11-22T01:20:50.336Z,3.30
2018-11-22T01:23:21.710Z,3.30
2018-11-22T01:25:53.199Z,3.30
2018-11-22T01:28:24.406Z,3.30
2018-11-22T01:30:56.193Z,3.30
2018-11-22T01:33:27.493Z,3.30
2018-11-22T01:35:58.829Z,3.40
2018-11-22T01:38:30.112Z,3.40
2018-11-22T01:41:01.770Z,3.30
2018-11-22T01:43:32.980Z,3.20
2018-11-22T01:46:04.378Z,3.20
2018-11-22T01:48:35.758Z,3.10
2018-11-22T01:51:07.469Z,3.10
2018-11-22T01:53:38.827Z,3.00
2018-11-22T01:56:10.188Z,3.00
2018-11-22T01:58:41.521Z,3.10
2018-11-22T02:01:12.884Z,3.00
2018-11-22T02:03:44.190Z,3.00
2018-11-22T02:06:15.491Z,3.00
2018-11-22T02:08:46.823Z,2.90
2018-11-22T02:11:18.210Z,3.00
2018-11-22T02:13:49.616Z,3.00
2018-11-22T02:16:20.888Z,3.00
2018-11-22T02:18:52.254Z,3.00
2018-11-22T02:21:23.670Z,3.10
2018-11-22T02:23:55.400Z,3.10
2018-11-22T02:26:26.946Z,3.10
2018-11-22T02:28:58.247Z,3.00
2018-11-22T02:31:35.122Z,3.00
2018-11-22T02:34:07.017Z,3.00
2018-11-22T02:36:38.442Z,3.00
2018-11-22T02:39:12.688Z,3.00
2018-11-22T02:41:44.718Z,3.00
2018-11-22T02:44:16.798Z,2.90
2018-11-22T02:46:48.352Z,2.80
2018-11-22T02:49:20.613Z,2.80
2018-11-22T02:51:51.924Z,2.80
2018-11-22T02:54:23.384Z,2.80
2018-11-22T02:56:54.743Z,2.70
2018-11-22T02:59:26.017Z,2.60
2018-11-22T03:01:57.911Z,2.70
2018-11-22T03:04:31.389Z,2.70
2018-11-22T03:07:03.024Z,2.70
2018-11-22T03:09:34.458Z,2.80
2018-11-22T03:12:07.154Z,2.90
2018-11-22T03:14:38.597Z,2.90
2018-11-22T03:17:10.027Z,3.00
2018-11-22T03:19:42.790Z,3.00
2018-11-22T03:22:14.140Z,3.00
2018-11-22T03:24:45.365Z,3.00
2018-11-22T03:27:16.683Z,3.00
2018-11-22T03:29:47.994Z,3.10
2018-11-22T03:32:19.723Z,3.10
2018-11-22T03:34:51.488Z,3.10
2018-11-22T03:37:22.836Z,3.10
2018-11-22T03:39:55.129Z,3.10
2018-11-22T03:42:26.706Z,3.00
2018-11-22T03:44:57.920Z,3.00
2018-11-22T03:47:29.314Z,3.00
2018-11-22T03:50:01.132Z,3.00
2018-11-22T03:52:32.807Z,3.00
2018-11-22T03:55:04.015Z,3.10
2018-11-22T03:57:35.325Z,3.10
2018-11-22T04:00:08.370Z,3.10
2018-11-22T04:02:40.022Z,3.20
2018-11-22T04:05:14.222Z,3.20
2018-11-22T04:07:45.403Z,3.20
2018-11-22T04:10:21.646Z,3.20
2018-11-22T04:12:52.979Z,3.20
2018-11-22T04:15:24.279Z,3.20
2018-11-22T04:17:55.336Z,3.20
2018-11-22T04:20:29.997Z,3.20
2018-11-22T04:23:01.073Z,3.20
2018-11-22T04:25:32.407Z,3.20
2018-11-22T04:28:03.652Z,3.30
2018-11-22T04:30:35.717Z,3.30
2018-11-22T04:33:07.080Z,3.30
2018-11-22T04:35:38.202Z,3.30
2018-11-22T04:38:09.413Z,3.30
2018-11-22T04:40:41.335Z,3.30
2018-11-22T04:43:12.999Z,3.30
2018-11-22T04:45:44.431Z,3.30
2018-11-22T04:48:15.529Z,3.30
2018-11-22T04:50:46.583Z,3.30
2018-11-22T04:53:17.725Z,3.30
2018-11-22T04:55:48.926Z,3.30
2018-11-22T04:58:20.569Z,3.30
2018-11-22T05:00:51.752Z,3.30
2018-11-22T05:03:22.897Z,3.30
2018-11-22T05:05:54.797Z,3.30
2018-11-22T05:08:27.001Z,3.30
2018-11-22T05:10:58.177Z,3.30
2018-11-22T05:13:29.265Z,3.30
2018-11-22T05:16:01.553Z,3.30
2018-11-22T05:18:32.715Z,3.30
2018-11-22T05:21:03.849Z,3.30
2018-11-22T05:23:35.244Z,3.30
2018-11-22T05:26:06.530Z,3.20
2018-11-22T05:28:37.748Z,3.20
2018-11-22T05:31:08.951Z,3.20
2018-11-22T05:33:40.007Z,3.10
2018-11-22T05:36:11.212Z,3.10
2018-11-22T05:38:42.444Z,3.10
2018-11-22T05:41:13.934Z,3.10
2018-11-22T05:43:45.465Z,3.10
2018-11-22T05:46:17.456Z,3.10
2018-11-22T05:48:48.987Z,3.10
2018-11-22T05:51:20.175Z,3.10
2018-11-22T05:53:51.286Z,3.10
2018-11-22T05:56:22.462Z,3.10
2018-11-22T05:58:53.709Z,3.20
2018-11-22T06:01:24.981Z,3.10
2018-11-22T06:03:56.065Z,3.10
2018-11-22T06:06:27.262Z,3.20
2018-11-22T06:08:58.636Z,3.20
2018-11-22T06:11:29.828Z,3.20
2018-11-22T06:14:01.212Z,3.20
2018-11-22T06:16:32.722Z,3.10
2018-11-22T06:19:03.941Z,3.10
2018-11-22T06:21:35.133Z,3.10
2018-11-22T06:24:06.608Z,3.10
2018-11-22T06:26:39.272Z,3.10
2018-11-22T06:29:09.942Z,3.20
2018-11-22T06:31:41.211Z,3.20
2018-11-22T06:34:12.458Z,3.20
2018-11-22T06:36:43.739Z,3.20
2018-11-22T06:39:15.157Z,3.30
2018-11-22T06:41:46.814Z,3.30
2018-11-22T06:44:18.274Z,3.30
2018-11-22T06:46:54.130Z,3.30
2018-11-22T06:49:25.270Z,3.30
2018-11-22T06:51:57.695Z,3.30
2018-11-22T06:54:28.969Z,3.30
2018-11-22T06:57:00.373Z,3.30
2018-11-22T06:59:33.375Z,3.20
2018-11-22T07:02:04.740Z,3.30
2018-11-22T07:04:36.078Z,3.30
2018-11-22T07:07:07.648Z,3.20
2018-11-22T07:09:38.931Z,3.30
2018-11-22T07:12:11.086Z,3.20
2018-11-22T07:14:42.601Z,3.20
2018-11-22T07:17:14.128Z,3.20
2018-11-22T07:19:45.550Z,3.20
2018-11-22T07:22:18.950Z,3.20
2018-11-22T07:24:48.497Z,3.20
2018-11-22T07:27:19.893Z,3.20
2018-11-22T07:29:52.198Z,3.20
2018-11-22T07:32:23.558Z,3.20
2018-11-22T07:34:55.412Z,3.20
2018-11-22T07:37:26.691Z,3.20
2018-11-22T07:39:57.894Z,3.30
2018-11-22T07:45:01.518Z,3.20
2018-11-22T07:47:35.184Z,3.10
2018-11-22T07:50:12.138Z,3.10
2018-11-22T07:52:43.425Z,3.10
2018-11-22T07:55:16.235Z,3.00
2018-11-22T07:57:48.438Z,3.00
2018-11-22T08:00:22.058Z,3.10
2018-11-22T08:02:56.823Z,3.10
2018-11-22T08:05:30.556Z,3.00
2018-11-22T08:08:01.922Z,3.00
2018-11-22T08:10:33.254Z,2.90
2018-11-22T08:13:04.692Z,2.80
2018-11-22T08:15:38.114Z,2.80
2018-11-22T08:18:10.134Z,2.80
2018-11-22T08:20:41.721Z,2.80
2018-11-22T08:23:13.071Z,2.80
2018-11-22T08:25:45.048Z,2.90
2018-11-22T08:28:16.516Z,3.00
2018-11-22T08:30:47.975Z,3.00
2018-11-22T08:33:19.276Z,3.00
2018-11-22T08:35:50.791Z,3.00
2018-11-22T08:38:22.241Z,3.00
2018-11-22T08:40:53.623Z,3.10
2018-11-22T08:43:25.677Z,3.00
2018-11-22T08:45:57.102Z,3.10
2018-11-22T08:48:28.326Z,3.10
2018-11-22T08:50:59.675Z,3.10
2018-11-22T08:53:36.964Z,3.20
2018-11-22T08:56:02.271Z,3.20
2018-11-22T08:58:33.632Z,3.10
2018-11-22T09:01:05.029Z,3.10
2018-11-22T09:03:37.277Z,3.10
2018-11-22T09:06:09.206Z,3.10
2018-11-22T09:08:40.582Z,3.20
2018-11-22T09:11:12.444Z,3.10
2018-11-22T09:13:43.284Z,3.20
2018-11-22T09:16:14.141Z,3.20
2018-11-22T09:18:44.977Z,3.20
2018-11-22T09:21:53.540Z,3.20
2018-11-22T09:24:43.734Z,3.20
2018-11-22T09:27:26.609Z,3.10
2018-11-22T09:30:48.105Z,3.20
2018-11-22T09:33:26.433Z,3.20
2018-11-22T09:36:35.383Z,3.20
2018-11-22T09:39:25.229Z,3.20
2018-11-22T09:42:15.210Z,3.30
2018-11-22T09:45:30.196Z,3.30
2018-11-22T09:48:20.027Z,3.40
2018-11-22T09:51:09.886Z,3.50
2018-11-22T09:54:07.245Z,3.60
2018-11-22T09:56:57.215Z,3.80
2018-11-22T09:59:47.072Z,3.80
2018-11-22T10:02:36.932Z,3.90
2018-11-22T10:05:45.949Z,4.00
2018-11-22T10:08:35.908Z,4.10
2018-11-22T10:11:26.573Z,4.10
2018-11-22T10:14:16.401Z,4.20
2018-11-22T10:17:06.267Z,4.30
2018-11-22T10:22:53.642Z,4.60
2018-11-22T10:25:43.483Z,4.60
2018-11-22T10:31:42.349Z,4.80
2018-11-22T10:34:33.043Z,5.10
2018-11-22T10:40:20.056Z,5.80
2018-11-22T10:43:28.958Z,6.00
2018-11-22T10:46:37.867Z,6.20
2018-11-22T10:49:27.685Z,6.30
2018-11-22T10:55:15.135Z,6.70
2018-11-22T10:58:04.985Z,6.90
2018-11-22T11:01:13.447Z,6.80
2018-11-22T11:04:21.917Z,6.70
2018-11-22T11:07:30.342Z,6.70
2018-11-22T11:10:39.280Z,6.80
2018-11-22T11:13:29.144Z,7.00
2018-11-22T11:16:19.053Z,7.10
2018-11-22T11:19:08.858Z,7.20
2018-11-22T11:22:17.796Z,7.30
2018-11-22T11:24:59.926Z,7.30
2018-11-22T11:27:50.039Z,7.40
2018-11-22T11:30:40.036Z,7.40
2018-11-22T11:33:29.878Z,7.40
2018-11-22T11:36:20.075Z,7.20
2018-11-22T11:39:11.208Z,7.10
2018-11-22T11:41:42.490Z,7.20
2018-11-22T11:44:13.527Z,7.20
2018-11-22T11:46:44.454Z,7.10
2018-11-22T11:49:15.541Z,7.10
2018-11-22T11:51:46.343Z,7.00
2018-11-22T11:54:17.184Z,7.00
2018-11-22T11:56:48.306Z,7.00
2018-11-22T11:59:19.139Z,7.00
2018-11-22T12:01:49.973Z,7.00
2018-11-22T12:04:20.760Z,7.00
2018-11-22T12:06:51.569Z,7.00
2018-11-22T12:09:22.478Z,6.90
2018-11-22T12:11:53.615Z,6.90
2018-11-22T12:14:24.526Z,7.00
2018-11-22T12:16:55.373Z,7.10
2018-11-22T12:19:26.173Z,7.20
2018-11-22T12:21:57.069Z,7.30
2018-11-22T12:24:28.423Z,7.50
2018-11-22T12:26:59.356Z,7.80
2018-11-22T12:29:30.242Z,8.00
2018-11-22T12:32:32.769Z,8.20
2018-11-22T12:35:21.044Z,8.30
2018-11-22T12:38:09.388Z,8.40
2018-11-22T12:40:40.229Z,8.50
2018-11-22T12:43:11.173Z,8.70
2018-11-22T12:45:42.063Z,8.90
2018-11-22T12:48:12.947Z,9.10
2018-11-22T12:50:43.777Z,9.20
2018-11-22T12:53:14.667Z,9.20
2018-11-22T12:55:45.559Z,9.00
2018-11-22T12:58:16.353Z,8.70
2018-11-22T13:00:47.160Z,8.40
2018-11-22T13:03:18.081Z,8.10
2018-11-22T13:05:49.261Z,8.00
2018-11-22T13:08:20.157Z,7.90
2018-11-22T13:10:51.188Z,7.90
2018-11-22T13:13:21.992Z,8.00
2018-11-22T13:15:52.984Z,8.20
2018-11-22T13:18:23.984Z,8.50
2018-11-22T13:20:54.859Z,8.80
2018-11-22T13:23:26.235Z,9.20
2018-11-22T13:25:57.067Z,9.50
2018-11-22T13:28:27.937Z,9.60
2018-11-22T13:30:59.215Z,9.80
2018-11-22T13:33:30.078Z,9.90
2018-11-22T13:36:00.992Z,10.00
2018-11-22T13:38:31.855Z,10.10
2018-11-22T13:41:02.759Z,10.20
2018-11-22T13:43:33.605Z,10.10
2018-11-22T13:46:05.379Z,10.00
2018-11-22T13:48:36.200Z,9.90
2018-11-22T13:51:07.206Z,9.70
2018-11-22T13:53:38.059Z,9.40
2018-11-22T13:56:09.101Z,9.10
2018-11-22T13:58:39.906Z,8.90
2018-11-22T14:01:10.720Z,8.60
2018-11-22T14:03:41.652Z,8.40
2018-11-22T14:06:12.890Z,8.20
2018-11-22T14:08:43.705Z,8.00
2018-11-22T14:11:15.326Z,8.00
2018-11-22T14:13:46.375Z,7.90
2018-11-22T14:16:17.201Z,7.80
2018-11-22T14:18:48.099Z,7.80
2018-11-22T14:21:18.943Z,7.80
2018-11-22T14:23:49.810Z,7.80
2018-11-22T14:26:20.699Z,7.70
2018-11-22T14:28:51.520Z,7.70
2018-11-22T14:31:22.333Z,7.70
2018-11-22T14:33:53.358Z,7.60
2018-11-22T14:36:24.165Z,7.50
2018-11-22T14:38:54.982Z,7.40
2018-11-22T14:41:25.801Z,7.40
2018-11-22T14:43:56.733Z,7.30
2018-11-22T14:46:27.573Z,7.20
2018-11-22T14:48:58.353Z,7.20
2018-11-22T14:51:50.513Z,7.10
2018-11-22T14:54:21.351Z,7.00
2018-11-22T14:56:52.158Z,7.00
2018-11-22T14:59:22.967Z,6.90
2018-11-22T15:01:53.768Z,6.80
2018-11-22T15:04:24.576Z,6.80
2018-11-22T15:06:55.475Z,6.70
2018-11-22T15:09:26.323Z,6.60
2018-11-22T15:11:57.220Z,6.60
2018-11-22T15:14:28.109Z,6.50
2018-11-22T15:16:58.936Z,6.50
2018-11-22T15:19:29.750Z,6.50
2018-11-22T15:22:00.549Z,6.40
2018-11-22T15:24:31.507Z,6.40
2018-11-22T15:27:02.478Z,6.30
2018-11-22T15:29:33.267Z,6.20
2018-11-22T15:32:04.092Z,6.20
2018-11-22T15:34:34.936Z,6.10
2018-11-22T15:37:06.032Z,6.10
2018-11-22T15:39:36.812Z,6.00
2018-11-22T15:42:08.037Z,5.90
2018-11-22T15:44:39.391Z,5.90
2018-11-22T15:47:10.356Z,5.80
2018-11-22T15:49:41.418Z,5.80
2018-11-22T15:52:12.429Z,5.70
2018-11-22T15:54:43.518Z,5.70
2018-11-22T15:57:14.770Z,5.60
2018-11-22T15:59:45.707Z,5.50
2018-11-22T16:02:16.892Z,5.50
2018-11-22T16:04:48.146Z,5.50
2018-11-22T16:07:18.980Z,5.40
2018-11-22T16:09:49.958Z,5.40
2018-11-22T16:12:21.463Z,5.30
2018-11-22T16:14:52.373Z,5.30
2018-11-22T16:17:23.183Z,5.20
2018-11-22T16:19:54.234Z,5.20
2018-11-22T16:22:25.114Z,5.20
2018-11-22T16:24:56.098Z,5.20
2018-11-22T16:27:27.120Z,5.10
2018-11-22T16:29:57.950Z,5.10
2018-11-22T16:32:28.820Z,5.10
2018-11-22T16:34:59.760Z,5.10
2018-11-22T16:37:30.640Z,5.10
2018-11-22T16:40:01.576Z,5.10
2018-11-22T16:42:32.690Z,5.10
2018-11-22T16:45:03.560Z,5.10
2018-11-22T16:47:34.366Z,5.00
2018-11-22T16:50:05.564Z,5.00
2018-11-22T16:52:36.426Z,5.00
2018-11-22T16:55:08.538Z,5.00
2018-11-22T16:57:39.717Z,5.00
2018-11-22T17:00:22.198Z,5.00
2018-11-22T17:02:54.085Z,5.00
2018-11-22T17:05:25.231Z,5.00
2018-11-22T17:07:56.354Z,4.90
2018-11-22T17:10:28.395Z,4.90
2018-11-22T17:13:00.371Z,4.90
2018-11-22T17:15:32.856Z,4.90
2018-11-22T17:18:04.506Z,4.90
2018-11-22T17:20:35.761Z,4.90
2018-11-22T17:23:08.013Z,4.90
2018-11-22T17:25:39.490Z,4.90
2018-11-22T17:28:11.112Z,4.90
2018-11-22T17:30:43.405Z,4.90
2018-11-22T17:33:14.347Z,4.80
2018-11-22T17:35:45.548Z,4.70
2018-11-22T17:38:16.572Z,4.70
2018-11-22T17:41:26.334Z,4.70
2018-11-22T17:44:16.479Z,4.70
2018-11-22T17:50:16.570Z,4.70
2018-11-22T17:53:26.319Z,4.70
2018-11-22T17:56:16.172Z,4.70
2018-11-22T17:59:06.389Z,4.70
2018-11-22T18:01:56.505Z,4.80
2018-11-22T18:07:42.379Z,4.70
2018-11-22T18:10:51.372Z,4.70
2018-11-22T18:13:59.918Z,4.70
2018-11-22T18:17:09.261Z,4.70
2018-11-22T18:19:59.206Z,4.70
2018-11-22T18:23:11.447Z,4.70
2018-11-22T18:26:17.990Z,4.70
2018-11-22T18:29:07.851Z,4.60
2018-11-22T18:31:57.747Z,4.70
2018-11-22T18:34:48.009Z,4.70
2018-11-22T18:37:19.943Z,4.70
2018-11-22T18:39:51.361Z,4.80
2018-11-22T18:42:22.844Z,4.70
2018-11-22T18:44:54.736Z,4.70
2018-11-22T18:47:26.055Z,4.70
2018-11-22T18:49:57.390Z,4.70
2018-11-22T18:52:28.632Z,4.80
2018-11-22T18:55:00.220Z,4.80
2018-11-22T18:57:31.592Z,4.80
2018-11-22T19:00:03.057Z,4.80
2018-11-22T19:02:34.669Z,4.80
2018-11-22T19:05:11.889Z,4.80
2018-11-22T19:07:44.289Z,4.70
2018-11-22T19:10:18.721Z,4.70
2018-11-22T19:12:51.375Z,4.60
2018-11-22T19:15:24.640Z,4.60
2018-11-22T19:17:56.173Z,4.50
2018-11-22T19:20:31.665Z,4.50
2018-11-22T19:23:03.876Z,4.40
2018-11-22T19:25:35.253Z,4.50
2018-11-22T19:28:07.885Z,4.50
2018-11-22T19:30:44.553Z,4.50
2018-11-22T19:33:17.952Z,4.50
2018-11-22T19:35:51.194Z,4.50
2018-11-22T19:38:23.177Z,4.40
2018-11-22T19:40:54.609Z,4.30
2018-11-22T19:43:26.051Z,4.30
2018-11-22T19:45:57.413Z,4.30
2018-11-22T19:48:28.840Z,4.30
2018-11-22T19:51:05.565Z,4.30
2018-11-22T19:53:32.714Z,4.30
2018-11-22T19:56:04.219Z,4.30
2018-11-22T19:58:35.747Z,4.30
2018-11-22T20:01:07.934Z,4.30
2018-11-22T20:03:39.591Z,4.30
2018-11-22T20:06:11.359Z,4.20
2018-11-22T20:08:42.668Z,4.20
2018-11-22T20:11:14.181Z,4.30
2018-11-22T20:13:46.814Z,4.30
2018-11-22T20:16:18.309Z,4.40
2018-11-22T20:18:50.751Z,4.40
2018-11-22T20:21:22.221Z,4.40
2018-11-22T20:23:53.512Z,4.40
2018-11-22T20:26:24.940Z,4.40
2018-11-22T20:28:56.285Z,4.40
2018-11-22T20:31:28.104Z,4.40
2018-11-22T20:33:59.560Z,4.40
2018-11-22T20:36:30.982Z,4.50
2018-11-22T20:39:02.369Z,4.50
2018-11-22T20:41:33.692Z,4.40
2018-11-22T20:44:05.346Z,4.40
2018-11-22T20:46:37.182Z,4.40
2018-11-22T20:49:08.712Z,4.40
2018-11-22T20:51:40.345Z,4.40
2018-11-22T20:54:14.655Z,4.40
2018-11-22T20:56:46.055Z,4.40
2018-11-22T20:59:19.504Z,4.30
2018-11-22T21:01:51.707Z,4.30
2018-11-22T21:04:23.284Z,4.20
2018-11-22T21:06:54.796Z,4.20
2018-11-22T21:09:26.224Z,4.20
2018-11-22T21:11:57.686Z,4.20
2018-11-22T21:14:28.845Z,4.20
2018-11-22T21:17:00.730Z,4.20
2018-11-22T21:19:31.890Z,4.20
2018-11-22T21:22:03.308Z,4.20
2018-11-22T21:24:35.632Z,4.20
2018-11-22T21:27:08.105Z,4.10
2018-11-22T21:29:39.348Z,4.10
2018-11-22T21:32:10.606Z,4.00
2018-11-22T21:34:42.385Z,4.00
2018-11-22T21:37:13.609Z,4.00
2018-11-22T21:39:45.126Z,3.90
2018-11-22T21:42:16.434Z,3.90
2018-11-22T21:44:47.748Z,3.90
2018-11-22T21:47:19.288Z,3.90
2018-11-22T21:49:50.444Z,3.90
2018-11-22T21:52:21.855Z,3.90
2018-11-22T21:54:53.390Z,3.90
2018-11-22T21:57:24.680Z,3.90
2018-11-22T21:59:56.021Z,4.00
2018-11-22T22:02:27.659Z,4.00
2018-11-22T22:04:59.024Z,4.00
2018-11-22T22:07:30.289Z,4.00
2018-11-22T22:10:01.702Z,3.90
2018-11-22T22:12:32.885Z,3.90
2018-11-22T22:15:04.644Z,3.90
2018-11-22T22:17:36.274Z,3.90
2018-11-22T22:20:11.418Z,3.90
2018-11-22T22:22:49.975Z,3.90
2018-11-22T22:25:23.435Z,3.90
2018-11-22T22:27:56.065Z,3.90
2018-11-22T22:30:28.781Z,3.80
2018-11-22T22:33:01.790Z,3.80
2018-11-22T22:35:33.553Z,3.80
2018-11-22T22:38:05.122Z,3.80
2018-11-22T22:40:36.713Z,3.80
2018-11-22T22:43:08.024Z,3.70
2018-11-22T22:45:39.284Z,3.80
2018-11-22T22:48:11.109Z,3.70
2018-11-22T22:50:42.469Z,3.70
2018-11-22T22:53:13.922Z,3.70
2018-11-22T22:55:45.507Z,3.70
2018-11-22T22:58:16.634Z,3.60
2018-11-22T23:00:51.419Z,3.60
2018-11-22T23:03:22.572Z,3.60
2018-11-22T23:05:54.011Z,3.60
2018-11-22T23:08:26.038Z,3.50
2018-11-22T23:10:57.691Z,3.40
2018-11-22T23:13:28.689Z,3.50
2018-11-22T23:16:01.094Z,3.50
2018-11-22T23:18:32.519Z,3.40
2018-11-22T23:21:03.744Z,3.40
2018-11-22T23:23:35.011Z,3.30
2018-11-22T23:26:06.462Z,3.30
2018-11-22T23:28:37.851Z,3.40
2018-11-22T23:31:10.191Z,3.40
2018-11-22T23:33:41.594Z,3.40
2018-11-22T23:36:12.685Z,3.40
2018-11-22T23:38:43.990Z,3.50
2018-11-22T23:41:15.264Z,3.50
2018-11-22T23:43:46.628Z,3.50
2018-11-22T23:46:18.180Z,3.40
2018-11-22T23:48:50.342Z,3.40
2018-11-22T23:51:21.837Z,3.50
2018-11-22T23:53:54.318Z,3.50
2018-11-22T23:56:27.866Z,3.50
2018-11-22T23:58:59.299Z,3.40
